Time;durP1;ratioP1;P1;durP2;ratioP2;P2;SDS_P1;SDS_P2;PMS_P1;PMS_P2;Temp;Humidity;BMP_temperature;BMP_pressure;BME280_temperature;BME280_humidity;BME280_pressure;Samples;Min_cycle;Max_cycle;Signal;HPM_P1;HPM_P2
2022/08/23 00:00:35;;;;;;;5.85;3.17;;;;;;;26.42;49.24;100741.84;4993299;28;20038;-73
2022/08/23 00:03:00;;;;;;;6.85;3.13;;;;;;;26.45;49.10;100747.44;4995555;28;20030;-73
2022/08/23 00:05:26;;;;;;;4.68;3.15;;;;;;;26.46;49.46;100742.63;4995351;28;20511;-74
2022/08/23 00:07:52;;;;;;;11.15;3.53;;;;;;;26.47;49.40;100741.41;4995384;28;20066;-76
2022/08/23 00:10:18;;;;;;;8.15;2.95;;;;;;;26.37;49.75;100740.28;4992799;28;20058;-73
2022/08/23 00:12:45;;;;;;;8.18;3.00;;;;;;;26.44;49.27;100751.41;4995216;28;20053;-73
2022/08/23 00:15:14;;;;;;;5.45;2.78;;;;;;;26.30;49.80;100751.59;4995362;28;20030;-73
2022/08/23 00:17:44;;;;;;;5.13;3.28;;;;;;;26.37;49.73;100750.69;4995191;28;20030;-74
2022/08/23 00:20:13;;;;;;;5.47;2.78;;;;;;;26.43;49.39;100749.84;4994946;28;20041;-74
2022/08/23 00:22:39;;;;;;;11.63;3.83;;;;;;;26.41;49.64;100749.47;4993915;28;20030;-74
2022/08/23 00:25:08;;;;;;;5.95;2.80;;;;;;;26.49;49.64;100750.94;4995151;28;20030;-73
2022/08/23 00:27:34;;;;;;;4.68;2.40;;;;;;;26.46;49.38;100746.22;4993858;28;20035;-74
2022/08/23 00:30:01;;;;;;;7.40;2.78;;;;;;;26.42;49.71;100750.25;4994846;28;20121;-74
2022/08/23 00:32:30;;;;;;;4.32;2.35;;;;;;;26.44;49.65;100743.00;4994917;28;20027;-73
2022/08/23 00:34:57;;;;;;;5.18;2.50;;;;;;;26.50;49.66;100748.94;4995018;28;20022;-74
2022/08/23 00:37:23;;;;;;;5.78;2.75;;;;;;;26.46;49.64;100759.44;4994899;28;20045;-73
2022/08/23 00:39:49;;;;;;;17.30;4.13;;;;;;;26.49;49.48;100755.75;4994612;28;20030;-74
2022/08/23 00:48:20;;;;;;;6.35;3.17;;;;;;;26.64;49.12;100767.56;4994962;28;20037;-73
2022/08/23 00:50:58;;;;;;;4.90;2.72;;;;;;;26.68;48.99;100754.31;4994493;28;20070;-73
2022/08/23 00:53:28;;;;;;;4.55;2.90;;;;;;;26.69;48.99;100750.28;4994603;28;20396;-75
2022/08/23 00:55:59;;;;;;;5.88;2.95;;;;;;;26.74;49.00;100744.19;4994560;28;20045;-73
2022/08/23 00:58:27;;;;;;;7.22;3.40;;;;;;;26.69;49.05;100745.47;4993109;28;20378;-74
2022/08/23 01:00:57;;;;;;;5.47;3.50;;;;;;;26.69;48.89;100739.88;4994155;28;20034;-73
2022/08/23 01:03:25;;;;;;;4.88;3.65;;;;;;;26.63;49.23;100735.94;4994321;28;20034;-73
2022/08/23 01:06:14;;;;;;;4.55;3.17;;;;;;;26.66;49.32;100734.31;4994366;28;20026;-73
2022/08/23 01:08:44;;;;;;;4.82;3.20;;;;;;;26.67;49.31;100741.50;4994387;28;20072;-73
2022/08/23 01:11:24;;;;;;;9.00;3.70;;;;;;;26.68;49.28;100723.47;4992071;28;20497;-73
2022/08/23 01:14:29;;;;;;;10.27;3.65;;;;;;;26.69;49.21;100722.25;4992985;28;20460;-74
2022/08/23 01:17:14;;;;;;;5.45;3.33;;;;;;;26.82;48.81;100717.63;4971021;28;20515;-73
2022/08/23 01:19:47;;;;;;;5.47;3.72;;;;;;;26.85;48.90;100707.59;4992520;28;20469;-74
2022/08/23 01:22:44;;;;;;;6.88;3.50;;;;;;;26.83;48.97;100706.00;4992598;28;20030;-74
2022/08/23 01:25:14;;;;;;;5.95;3.33;;;;;;;26.87;48.65;100705.16;4993921;28;20030;-74
2022/08/23 01:27:41;;;;;;;5.82;3.53;;;;;;;26.87;48.85;100713.56;4994303;28;20073;-74
2022/08/23 01:30:10;;;;;;;7.13;3.45;;;;;;;26.88;48.77;100706.72;4993700;28;20030;-74
2022/08/23 01:32:43;;;;;;;5.90;3.00;;;;;;;26.86;48.87;100714.78;4992476;28;20037;-73
2022/08/23 01:35:09;;;;;;;5.20;2.97;;;;;;;26.76;48.93;100711.72;4992599;28;20602;-74
2022/08/23 01:37:35;;;;;;;6.40;2.88;;;;;;;26.75;49.24;100710.16;4993822;28;20026;-73
2022/08/23 01:40:01;;;;;;;3.70;2.92;;;;;;;26.85;49.09;100710.41;4989488;28;20030;-73
2022/08/23 01:42:27;;;;;;;7.28;3.45;;;;;;;26.81;48.99;100714.03;4993192;28;20026;-74
2022/08/23 01:44:53;;;;;;;6.85;3.00;;;;;;;26.75;49.07;100704.53;4992209;28;20571;-73
2022/08/23 01:47:18;;;;;;;3.10;2.65;;;;;;;26.76;49.11;100705.34;4993387;28;20061;-73
2022/08/23 01:49:44;;;;;;;5.85;2.78;;;;;;;26.76;49.34;100708.13;4992902;28;20027;-74
2022/08/23 01:52:10;;;;;;;6.32;3.50;;;;;;;26.75;49.37;100712.13;4992784;28;20037;-74
2022/08/23 01:54:35;;;;;;;6.50;3.10;;;;;;;26.73;49.09;100708.97;4991913;28;20473;-74
2022/08/23 01:57:01;;;;;;;8.68;2.80;;;;;;;26.72;49.05;100713.78;4993000;28;20026;-79
2022/08/23 01:59:26;;;;;;;5.55;3.08;;;;;;;26.72;49.31;100724.22;4992923;28;20037;-73
2022/08/23 02:01:52;;;;;;;7.28;2.95;;;;;;;26.71;49.24;100720.59;4992952;28;20060;-74
2022/08/23 02:04:18;;;;;;;5.20;3.08;;;;;;;26.67;49.31;100725.47;4992911;28;20030;-75
2022/08/23 02:06:44;;;;;;;6.72;2.70;;;;;;;26.65;49.35;100732.72;4993029;28;20092;-74
2022/08/23 02:09:10;;;;;;;5.38;3.20;;;;;;;26.64;49.29;100729.13;4992641;28;20492;-74
2022/08/23 02:11:39;;;;;;;7.82;3.30;;;;;;;26.65;49.21;100732.72;4992347;28;20481;-73
2022/08/23 02:14:09;;;;;;;3.88;2.75;;;;;;;26.66;49.10;100734.31;4993002;28;20118;-74
2022/08/23 02:16:39;;;;;;;;;;;;;;;26.65;49.36;100722.31;4991907;28;20058;-74
2022/08/23 02:19:10;;;;;;;4.00;2.97;;;;;;;26.72;49.07;100707.38;4992561;28;19914;-73
2022/08/23 02:21:37;;;;;;;7.18;3.33;;;;;;;26.85;48.49;100713.19;4992754;28;20026;-79
2022/08/23 02:24:14;;;;;;;5.40;3.08;;;;;;;26.79;48.54;100710.88;4992552;28;20030;-73
2022/08/23 02:26:43;;;;;;;7.80;3.03;;;;;;;26.75;48.83;100717.75;4992778;28;20026;-73
2022/08/23 02:29:08;;;;;;;5.18;3.22;;;;;;;26.76;48.52;100711.72;4992786;28;20030;-73
2022/08/23 02:31:34;;;;;;;5.63;3.22;;;;;;;26.83;48.62;100724.84;4992457;28;20681;-73
2022/08/23 02:34:00;;;;;;;8.82;4.03;;;;;;;26.85;48.55;100732.81;4992619;28;20034;-73
2022/08/23 02:36:26;;;;;;;7.68;3.67;;;;;;;26.90;48.64;100733.09;4992610;28;20041;-73
2022/08/23 02:38:53;;;;;;;6.68;3.80;;;;;;;26.92;48.61;100736.31;4992597;28;20085;-73
2022/08/23 02:41:20;;;;;;;7.65;3.83;;;;;;;26.94;48.64;100722.66;4992640;28;20034;-73
2022/08/23 02:43:45;;;;;;;9.73;4.85;;;;;;;26.95;48.54;100723.44;4992487;28;20544;-73
2022/08/23 02:46:11;;;;;;;9.07;4.22;;;;;;;26.69;49.52;100723.06;4992204;28;20030;-73
2022/08/23 02:48:37;;;;;;;7.10;3.72;;;;;;;26.71;49.74;100717.81;4991118;28;20027;-73
2022/08/23 02:51:07;;;;;;;6.70;4.03;;;;;;;26.74;49.52;100714.16;4992172;28;20030;-76
2022/08/23 02:53:33;;;;;;;10.52;4.18;;;;;;;26.71;49.76;100708.59;4992352;28;20027;-73
2022/08/23 02:55:59;;;;;;;9.82;4.85;;;;;;;26.74;49.77;100719.75;4992426;28;20485;-79
2022/08/23 02:58:26;;;;;;;10.70;5.18;;;;;;;26.77;49.62;100718.91;4991034;28;20026;-73
2022/08/23 03:00:52;;;;;;;12.18;5.47;;;;;;;26.75;49.86;100724.16;4992007;28;20026;-74
2022/08/23 03:03:19;;;;;;;11.15;5.05;;;;;;;26.70;50.01;100721.84;4991060;28;20029;-74
2022/08/23 03:05:45;;;;;;;7.50;4.28;;;;;;;26.62;50.16;100720.34;4992266;28;20029;-74
2022/08/23 03:08:10;;;;;;;11.18;5.40;;;;;;;26.65;49.90;100722.31;4992083;28;20026;-75
2022/08/23 03:10:40;;;;;;;9.45;4.88;;;;;;;26.84;48.99;100720.81;4992046;28;20046;-74
2022/08/23 03:13:06;;;;;;;20.02;5.32;;;;;;;26.68;49.74;100721.47;4992151;28;20085;-74
2022/08/23 03:15:32;;;;;;;12.65;4.53;;;;;;;26.71;49.56;100731.03;4991789;28;20440;-74
2022/08/23 03:17:57;;;;;;;11.63;4.75;;;;;;;26.70;49.41;100735.84;4990855;28;20377;-73
2022/08/23 03:20:23;;;;;;;12.18;5.18;;;;;;;26.69;49.40;100733.47;4991901;28;20421;-74
2022/08/23 03:22:48;;;;;;;13.27;6.13;;;;;;;26.69;49.61;100727.88;4992216;28;20485;-74
2022/08/23 03:25:14;;;;;;;8.48;4.72;;;;;;;26.67;49.23;100730.28;4990911;28;20109;-74
2022/08/23 03:27:40;;;;;;;9.82;4.70;;;;;;;26.73;49.29;100728.59;4992130;28;20501;-74
2022/08/23 03:30:06;;;;;;;10.02;4.35;;;;;;;26.76;49.04;100728.56;4992095;28;20033;-73
2022/08/23 03:32:32;;;;;;;9.27;4.53;;;;;;;26.74;48.96;100727.38;4991954;28;20033;-74
2022/08/23 03:34:58;;;;;;;11.10;4.80;;;;;;;26.68;49.03;100726.28;4992726;28;20026;-76
2022/08/23 03:37:24;;;;;;;12.07;5.07;;;;;;;26.68;49.10;100729.09;4995435;28;20529;-74
2022/08/23 03:39:51;;;;;;;11.70;5.25;;;;;;;26.64;49.41;100725.53;4995697;28;20116;-74
2022/08/23 03:42:17;;;;;;;8.93;5.38;;;;;;;26.60;49.38;100724.78;4995603;28;20027;-73
2022/08/23 03:44:42;;;;;;;9.07;5.07;;;;;;;26.50;49.73;100720.94;4995486;28;20473;-73
2022/08/23 03:47:08;;;;;;;10.05;4.47;;;;;;;26.43;49.68;100726.63;4995560;28;20037;-73
2022/08/23 03:49:34;;;;;;;11.68;5.28;;;;;;;26.38;49.93;100725.09;4995503;28;20022;-73
2022/08/23 03:51:59;;;;;;;10.70;4.90;;;;;;;26.38;49.87;100719.47;4994093;28;20030;-74
2022/08/23 03:54:26;;;;;;;7.38;5.03;;;;;;;26.41;49.66;100729.88;4995257;28;20037;-74
2022/08/23 03:56:55;;;;;;;12.77;5.80;;;;;;;26.34;49.97;100729.94;4995431;28;20433;-75
2022/08/23 03:59:21;;;;;;;11.05;5.80;;;;;;;26.32;50.07;100732.38;4995139;28;20022;-74
2022/08/23 04:01:47;;;;;;;10.70;5.40;;;;;;;26.31;49.86;100736.38;4995285;28;20026;-74
2022/08/23 04:04:12;;;;;;;12.13;5.40;;;;;;;26.28;50.00;100731.59;4995295;28;20054;-74
2022/08/23 04:06:38;;;;;;;7.32;5.32;;;;;;;26.30;50.30;100734.81;4995270;28;20444;-73
2022/08/23 04:09:04;;;;;;;10.85;6.28;;;;;;;26.24;50.22;100730.88;5010317;28;20030;-74
2022/08/23 04:11:30;;;;;;;11.65;5.32;;;;;;;26.30;50.23;100734.81;4995021;28;20535;-73
2022/08/23 04:13:56;;;;;;;14.40;6.07;;;;;;;26.33;50.01;100735.97;4995714;28;20531;-74
2022/08/23 04:16:21;;;;;;;12.73;5.43;;;;;;;26.38;50.01;100736.28;4995773;28;20022;-74
2022/08/23 04:18:47;;;;;;;11.30;5.50;;;;;;;26.37;50.11;100728.28;4995907;28;20057;-79
2022/08/23 04:21:18;;;;;;;10.18;6.47;;;;;;;26.39;50.32;100732.28;4995904;28;20380;-73
2022/08/23 04:23:43;;;;;;;9.57;5.82;;;;;;;26.40;49.93;100736.69;4995621;28;20073;-73
2022/08/23 04:26:10;;;;;;;11.98;6.22;;;;;;;26.37;49.96;100733.88;4995722;28;20085;-73
2022/08/23 04:28:36;;;;;;;11.65;6.05;;;;;;;26.40;50.04;100739.47;4995634;28;20050;-78
2022/08/23 04:31:03;;;;;;;15.45;6.25;;;;;;;26.42;49.86;100742.66;4995647;28;20030;-78
2022/08/23 04:33:31;;;;;;;12.35;5.75;;;;;;;26.45;49.63;100736.22;4995497;28;20498;-73
2022/08/23 04:36:00;;;;;;;19.83;6.95;;;;;;;26.40;49.76;100733.09;4995508;28;20054;-74
2022/08/23 04:38:26;;;;;;;16.08;6.55;;;;;;;26.42;49.96;100742.66;4995214;28;20031;-79
2022/08/23 04:43:38;;;;;;;11.82;5.38;;;;;;;26.44;49.72;100736.63;4995673;28;20057;-78
2022/08/23 04:46:05;;;;;;;10.77;5.93;;;;;;;26.48;49.62;100731.78;4995312;28;20457;-74
2022/08/23 04:48:32;;;;;;;14.43;6.80;;;;;;;26.43;49.95;100730.22;4995095;28;20393;-74
2022/08/23 04:50:58;;;;;;;24.52;8.10;;;;;;;26.47;49.70;100730.19;4995232;28;20034;-75
2022/08/23 04:53:23;;;;;;;17.48;5.65;;;;;;;26.34;50.34;100727.13;4995203;28;20417;-73
2022/08/23 04:55:51;;;;;;;15.50;6.97;;;;;;;26.26;50.38;100726.44;4995181;28;20026;-79
2022/08/23 04:58:17;;;;;;;12.60;5.68;;;;;;;26.21;50.57;100735.28;4995150;28;20392;-74
2022/08/23 05:00:43;;;;;;;19.45;6.00;;;;;;;26.14;50.64;100734.59;4995147;28;20044;-74
2022/08/23 05:03:09;;;;;;;13.38;5.75;;;;;;;26.08;50.62;100736.28;4995130;28;20473;-77
2022/08/23 05:05:35;;;;;;;13.52;6.82;;;;;;;26.08;50.80;100730.69;4994973;28;20027;-73
2022/08/23 05:08:00;;;;;;;13.38;6.60;;;;;;;25.95;51.11;100733.25;4994939;28;20031;-74
2022/08/23 05:10:26;;;;;;;18.30;7.05;;;;;;;26.02;50.84;100732.38;4994606;28;20043;-75
2022/08/23 05:12:51;;;;;;;13.05;7.07;;;;;;;26.05;50.95;100739.91;4993542;28;20030;-73
2022/08/23 05:15:17;;;;;;;28.33;7.82;;;;;;;26.10;50.41;100745.06;4994518;28;20503;-74
2022/08/23 05:17:43;;;;;;;60.65;11.57;;;;;;;26.09;50.73;100746.28;4994690;28;20022;-74
2022/08/23 05:20:09;;;;;;;26.35;8.18;;;;;;;26.13;50.66;100747.00;4994658;28;20470;-74
2022/08/23 05:22:37;;;;;;;32.38;8.38;;;;;;;26.06;51.00;100756.28;4994603;28;20102;-74
2022/08/23 05:25:03;;;;;;;21.63;6.45;;;;;;;26.09;50.71;100758.25;4994584;28;20031;-73
2022/08/23 05:27:29;;;;;;;11.32;5.75;;;;;;;26.17;50.57;100761.78;4994470;28;20027;-75
2022/08/23 05:29:54;;;;;;;21.15;7.28;;;;;;;26.15;50.71;100756.59;4994479;28;20039;-73
2022/08/23 05:32:21;;;;;;;13.32;5.60;;;;;;;26.16;50.64;100760.97;4994089;28;20031;-75
2022/08/23 05:34:47;;;;;;;18.25;6.65;;;;;;;26.11;50.53;100763.44;4994152;28;20027;-73
2022/08/23 05:37:14;;;;;;;13.63;6.95;;;;;;;26.15;50.54;100762.19;4994380;28;20549;-74
2022/08/23 05:39:39;;;;;;;18.55;6.15;;;;;;;26.11;50.61;100761.44;4994336;28;20096;-73
2022/08/23 05:42:07;;;;;;;13.95;6.68;;;;;;;26.12;50.62;100765.81;4993724;28;20464;-73
2022/08/23 05:44:33;;;;;;;14.85;6.20;;;;;;;26.11;50.60;100772.63;4994102;28;20034;-73
2022/08/23 05:46:58;;;;;;;14.65;6.20;;;;;;;26.26;50.26;100773.25;4994193;28;20106;-74
2022/08/23 05:49:24;;;;;;;47.20;11.75;;;;;;;26.02;51.12;100782.75;4994012;28;20117;-74
2022/08/23 05:51:50;;;;;;;16.75;6.95;;;;;;;26.05;50.93;100782.69;4994044;28;20098;-75
2022/08/23 05:54:16;;;;;;;10.50;6.05;;;;;;;26.16;50.63;100786.19;4993907;28;20454;-74
2022/08/23 05:56:43;;;;;;;13.02;6.60;;;;;;;26.16;50.79;100780.59;4993947;28;20031;-78
2022/08/23 05:59:12;;;;;;;14.65;6.15;;;;;;;26.17;50.66;100787.75;4993561;28;20054;-74
2022/08/23 06:01:38;;;;;;;23.88;7.65;;;;;;;26.22;50.54;100787.31;4993927;28;20534;-74
2022/08/23 06:04:06;;;;;;;10.85;6.43;;;;;;;26.20;50.56;100786.13;4993849;28;20452;-74
2022/08/23 06:06:33;;;;;;;16.58;6.45;;;;;;;26.14;50.90;100787.78;4993771;28;20023;-74
2022/08/23 06:08:59;;;;;;;15.48;6.90;;;;;;;26.14;50.87;100793.38;4992079;28;20050;-80
2022/08/23 06:11:28;;;;;;;16.02;6.30;;;;;;;26.19;50.80;100799.34;4993488;28;20050;-74
2022/08/23 06:13:56;;;;;;;10.52;5.68;;;;;;;26.19;50.83;100801.34;4992215;28;20041;-74
2022/08/23 06:16:26;;;;;;;13.70;5.88;;;;;;;26.26;50.82;100796.44;4993657;28;20026;-74
2022/08/23 06:18:53;;;;;;;20.25;8.27;;;;;;;26.39;50.42;100799.53;4993565;28;20026;-74
2022/08/23 06:21:19;;;;;;;13.50;5.68;;;;;;;26.42;50.17;100809.88;4992348;28;20034;-74
2022/08/23 06:23:48;;;;;;;15.63;6.20;;;;;;;26.42;50.01;100809.09;5008659;28;20384;-73
2022/08/23 06:26:17;;;;;;;13.50;5.82;;;;;;;26.31;50.52;100805.63;4992117;28;20041;-74
2022/08/23 06:28:45;;;;;;;14.10;6.25;;;;;;;26.36;50.44;100817.13;4993481;28;20118;-78
2022/08/23 06:31:11;;;;;;;17.73;7.55;;;;;;;26.36;50.45;100811.53;4992108;28;20448;-74
2022/08/23 06:33:39;;;;;;;24.42;7.45;;;;;;;26.39;50.60;100815.53;4993461;28;20030;-74
2022/08/23 06:36:12;;;;;;;17.00;7.68;;;;;;;26.35;50.57;100815.53;4993442;28;20026;-74
2022/08/23 06:38:40;;;;;;;15.05;6.25;;;;;;;26.37;50.51;100821.50;4993309;28;20437;-73
2022/08/23 06:41:09;;;;;;;15.45;6.78;;;;;;;26.39;50.80;100810.72;4993028;28;20520;-74
2022/08/23 06:43:36;;;;;;;8.40;6.13;;;;;;;26.49;50.48;100812.59;4993228;28;20117;-79
2022/08/23 06:46:17;;;;;;;13.38;6.10;;;;;;;26.44;50.47;100804.63;4991884;28;20549;-74
2022/08/23 06:48:44;;;;;;;17.70;6.50;;;;;;;26.41;50.75;100811.09;4993207;28;20027;-80
2022/08/23 06:51:18;;;;;;;30.63;9.10;;;;;;;26.46;50.58;100815.44;4993087;28;20034;-74
2022/08/23 06:53:44;;;;;;;22.38;9.13;;;;;;;26.46;50.59;100824.66;4993170;28;20034;-76
2022/08/23 06:56:10;;;;;;;21.25;7.25;;;;;;;26.50;50.53;100816.19;4993184;28;20397;-75
2022/08/23 06:58:36;;;;;;;26.85;8.02;;;;;;;26.57;50.24;100820.91;4993091;28;20366;-74
2022/08/23 07:01:40;;;;;;;13.68;7.75;;;;;;;26.53;50.09;100816.16;4993107;28;20027;-74
2022/08/23 07:04:08;;;;;;;35.65;9.35;;;;;;;26.59;50.07;100821.28;4989525;28;20042;-74
2022/08/23 07:06:35;;;;;;;25.10;9.80;;;;;;;26.69;49.94;100823.16;4993831;28;20027;-74
2022/08/23 07:09:02;;;;;;;17.33;7.10;;;;;;;26.78;49.59;100827.00;4991900;28;20089;-74
2022/08/23 07:11:31;;;;;;;28.08;8.05;;;;;;;26.77;49.57;100825.44;4994990;28;20054;-74
2022/08/23 07:14:00;;;;;;;27.50;8.00;;;;;;;26.74;49.85;100825.47;4996964;28;20030;-73
2022/08/23 07:16:32;;;;;;;15.65;5.57;;;;;;;26.86;49.60;100830.50;4995678;28;20436;-73
2022/08/23 07:18:58;;;;;;;75.43;11.40;;;;;;;26.88;49.52;100833.66;4995918;28;20117;-75
2022/08/23 07:21:23;;;;;;;8.40;4.65;;;;;;;27.04;49.11;100824.66;4995553;28;20125;-76
2022/08/23 07:23:49;;;;;;;23.52;5.22;;;;;;;27.05;49.18;100835.47;4996962;28;20026;-76
2022/08/23 07:26:17;;;;;;;50.95;8.88;;;;;;;27.17;48.97;100833.28;4997101;28;20030;-78
2022/08/23 07:28:43;;;;;;;4.05;2.40;;;;;;;26.89;49.11;100840.06;4997608;28;20109;-81
2022/08/23 07:31:21;;;;;;;24.25;4.32;;;;;;;26.82;49.05;100826.94;4997716;28;20258;-86
2022/08/23 07:33:47;;;;;;;22.85;4.55;;;;;;;27.06;48.06;100828.66;4998390;28;20038;-82
2022/08/23 07:36:16;;;;;;;28.75;3.97;;;;;;;26.89;48.61;100835.25;4997459;28;20041;-87
2022/08/23 07:38:43;;;;;;;10.77;2.50;;;;;;;26.89;48.55;100838.06;4997796;28;20044;-86
2022/08/23 07:41:09;;;;;;;6.47;2.50;;;;;;;27.19;47.68;100850.47;4997973;28;20170;-88
2022/08/23 07:43:35;;;;;;;6.18;2.08;;;;;;;26.68;48.46;100849.59;4996724;28;20033;-63
2022/08/23 07:46:02;;;;;;;47.83;6.47;;;;;;;26.97;47.78;100852.78;4996356;28;20164;-82
2022/08/23 07:48:28;;;;;;;113.00;19.83;;;;;;;26.90;48.00;100847.25;4996358;28;20037;-63
2022/08/23 07:50:57;;;;;;;4.63;2.25;;;;;;;26.83;48.15;100851.00;4996220;28;20031;-72
2022/08/23 07:53:23;;;;;;;16.17;3.60;;;;;;;27.03;47.31;100851.88;4996164;28;20034;-80
2022/08/23 07:55:49;;;;;;;5.45;2.55;;;;;;;26.86;47.76;100857.75;4996386;28;20034;-85
2022/08/23 07:58:15;;;;;;;13.98;3.22;;;;;;;27.00;47.41;100861.16;4996383;28;20504;-74
2022/08/23 08:00:41;;;;;;;63.35;11.07;;;;;;;27.03;47.54;100863.09;4996055;28;20023;-82
2022/08/23 08:03:08;;;;;;;3.40;2.60;;;;;;;27.27;46.73;100874.38;4996751;28;20037;-62
2022/08/23 08:05:35;;;;;;;8.18;3.20;;;;;;;27.16;47.32;100874.56;4996288;28;20014;-78
2022/08/23 08:08:01;;;;;;;83.78;9.98;;;;;;;27.27;46.91;100880.78;4996041;28;20031;-63
2022/08/23 08:10:27;;;;;;;197.35;21.38;;;;;;;27.24;47.02;100876.03;4996268;28;20038;-63
2022/08/23 08:12:53;;;;;;;56.00;8.25;;;;;;;27.27;47.21;100885.59;4996078;28;20097;-75
2022/08/23 08:15:20;;;;;;;14.35;3.20;;;;;;;27.20;47.13;100877.28;4994135;28;20022;-76
2022/08/23 08:17:50;;;;;;;34.88;5.40;;;;;;;27.19;47.22;100884.13;5002208;28;20018;-76
2022/08/23 08:20:16;;;;;;;;;;;;;;;26.94;47.09;100885.25;5003853;28;20080;-77
2022/08/23 08:22:42;;;;;;;5.25;1.90;;;;;;;26.88;46.94;100891.75;5005037;28;19948;-76
2022/08/23 08:25:09;;;;;;;2.13;1.23;;;;;;;27.34;45.65;100891.09;5004809;28;20491;-76
2022/08/23 08:27:35;;;;;;;18.73;2.35;;;;;;;27.43;45.15;100893.38;5006124;28;20373;-76
2022/08/23 08:30:02;;;;;;;3.05;0.90;;;;;;;27.19;45.22;100895.34;5004615;28;20025;-75
2022/08/23 08:32:27;;;;;;;21.92;2.67;;;;;;;27.32;45.10;100901.97;5006242;28;20044;-78
2022/08/23 08:34:53;;;;;;;0.70;0.70;;;;;;;27.50;44.71;100899.66;5014228;28;20061;-76
2022/08/23 08:37:19;;;;;;;15.55;3.05;;;;;;;27.26;44.89;100904.44;4996360;28;20085;-77
2022/08/23 08:39:44;;;;;;;3.67;0.90;;;;;;;27.33;44.48;100909.97;4995601;28;20481;-86
2022/08/23 08:42:37;;;;;;;10.65;1.77;;;;;;;26.96;44.25;100904.47;4995453;28;20109;-76
2022/08/23 08:45:26;;;;;;;12.82;2.08;;;;;;;27.08;44.17;100904.72;4994130;28;20026;-75
2022/08/23 08:48:01;;;;;;;3.10;0.90;;;;;;;27.22;44.06;100909.34;4995166;28;20030;-75
2022/08/23 08:50:32;;;;;;;70.63;7.93;;;;;;;27.17;44.24;100917.44;4996030;28;20030;-76
2022/08/23 08:53:16;;;;;;;5.22;0.98;;;;;;;27.55;43.35;100910.41;4995286;28;20065;-86
2022/08/23 08:55:48;;;;;;;113.63;12.25;;;;;;;27.64;43.49;100907.84;4996709;28;20023;-80
2022/08/23 08:58:21;;;;;;;105.93;13.25;;;;;;;27.78;43.16;100914.50;4998884;28;20014;-76
2022/08/23 09:00:47;;;;;;;63.20;8.38;;;;;;;27.81;43.19;100908.84;5006776;28;20470;-84
2022/08/23 09:03:19;;;;;;;53.72;4.78;;;;;;;27.46;44.04;100915.00;5005614;28;20021;-77
2022/08/23 09:06:13;;;;;;;3.00;1.00;;;;;;;27.44;43.76;100917.44;5000016;28;20021;-78
2022/08/23 09:08:45;;;;;;;8.48;1.50;;;;;;;27.38;43.89;100915.09;4992817;28;20089;-85
2022/08/23 09:11:35;;;;;;;13.18;1.75;;;;;;;27.37;43.87;100921.13;4979604;28;20046;-77
2022/08/23 09:14:00;;;;;;;9.13;2.63;;;;;;;27.31;44.09;100908.81;4978327;28;20038;-78
2022/08/23 09:16:26;;;;;;;107.45;11.95;;;;;;;27.56;43.23;100912.00;4980666;28;20030;-77
2022/08/23 09:18:55;;;;;;;69.32;8.05;;;;;;;27.59;43.51;100911.16;4978167;28;20058;-78
2022/08/23 09:21:22;;;;;;;8.52;1.20;;;;;;;27.21;44.10;100909.78;4976963;28;20049;-81
2022/08/23 09:23:49;;;;;;;2.33;1.27;;;;;;;27.28;43.89;100915.25;4980212;28;20112;-77
2022/08/23 09:26:25;;;;;;;3.05;0.90;;;;;;;27.19;44.01;100917.78;4979305;28;20038;-78
2022/08/23 09:28:58;;;;;;;8.70;3.97;;;;;;;27.80;42.85;100928.88;4977836;28;20014;-78
2022/08/23 09:31:44;;;;;;;1.17;0.85;;;;;;;28.20;42.36;100922.16;4977955;28;20402;-78
2022/08/23 09:34:22;;;;;;;24.50;2.20;;;;;;;28.33;41.96;100932.78;4978771;28;20053;-79
2022/08/23 09:36:47;;;;;;;2.88;0.80;;;;;;;28.43;41.53;100937.44;4977537;28;20527;-78
2022/08/23 09:39:35;;;;;;;31.83;4.13;;;;;;;28.20;41.54;100941.03;4977498;28;20027;-80
2022/08/23 09:42:01;;;;;;;1.98;0.73;;;;;;;28.04;41.63;100940.94;4975614;28;20129;-77
2022/08/23 09:44:41;;;;;;;18.60;2.30;;;;;;;28.34;41.39;100945.59;4977813;28;20106;-77
2022/08/23 09:47:11;;;;;;;69.53;7.82;;;;;;;28.61;40.84;100949.09;4983498;28;20059;-76
2022/08/23 09:49:38;;;;;;;64.80;6.32;;;;;;;28.61;41.05;100949.09;4977580;28;20040;-77
2022/08/23 09:52:18;;;;;;;14.02;1.88;;;;;;;28.48;40.78;100945.34;4977489;28;20034;-76
2022/08/23 09:54:59;;;;;;;22.95;2.75;;;;;;;28.72;40.51;100946.88;4978291;28;20054;-77
2022/08/23 09:57:27;;;;;;;61.97;6.97;;;;;;;28.94;39.53;100936.00;4979103;28;20029;-77
2022/08/23 09:59:59;;;;;;;13.13;1.60;;;;;;;29.03;40.24;100943.84;4977942;28;20083;-76
2022/08/23 10:02:33;;;;;;;13.35;1.50;;;;;;;28.76;39.41;100943.97;4979302;28;20056;-76
2022/08/23 10:05:15;;;;;;;1.63;0.38;;;;;;;28.90;39.53;100951.34;4978931;28;20026;-77
2022/08/23 10:07:45;;;;;;;70.82;6.35;;;;;;;29.07;39.26;100935.31;4978576;28;20734;-73
2022/08/23 10:10:19;;;;;;;;;;;;;;;28.96;39.34;100946.81;4978358;28;20465;-74
2022/08/23 10:12:45;;;;;;;108.60;11.63;;;;;;;29.45;39.00;100933.63;4977603;28;20424;-74
2022/08/23 10:15:12;;;;;;;18.52;2.58;;;;;;;29.19;38.97;100931.84;4990783;28;20061;-79
2022/08/23 10:17:49;;;;;;;26.45;2.80;;;;;;;29.14;38.35;100946.41;4978373;28;20435;-75
2022/08/23 10:20:40;;;;;;;59.53;5.63;;;;;;;29.44;37.03;100937.69;4980058;28;20072;-73
2022/08/23 10:23:33;;;;;;;73.28;7.82;;;;;;;29.91;37.28;100940.19;4978268;28;20054;-76
2022/08/23 10:26:00;;;;;;;10.25;1.75;;;;;;;29.87;37.04;100941.50;5008425;28;20504;-80
2022/08/23 10:31:49;;;;;;;40.15;5.03;;;;;;;30.42;36.06;100936.84;5003006;28;20041;-84
2022/08/23 10:34:42;;;;;;;88.60;10.27;;;;;;;30.41;36.01;100938.09;4994554;28;20409;-77
2022/08/23 10:37:21;;;;;;;61.70;5.60;;;;;;;29.74;36.40;100939.41;4978159;28;20530;-76
2022/08/23 10:40:18;;;;;;;3.40;0.60;;;;;;;30.03;35.25;100938.69;4977830;28;20181;-80
2022/08/23 10:42:47;;;;;;;6.40;0.82;;;;;;;30.00;35.37;100939.53;4975307;28;20034;-86
2022/08/23 10:45:26;;;;;;;4.03;1.05;;;;;;;29.25;35.75;100936.53;4978591;28;20105;-79
2022/08/23 10:47:58;;;;;;;11.77;1.20;;;;;;;29.65;35.57;100939.22;4979975;28;20034;-76
2022/08/23 10:50:26;;;;;;;23.55;2.97;;;;;;;30.33;34.86;100932.66;4977245;28;20022;-77
2022/08/23 10:53:08;;;;;;;20.35;2.92;;;;;;;30.61;33.04;100930.28;4976874;28;20085;-76
2022/08/23 10:58:31;;;;;;;3.65;0.82;;;;;;;30.86;33.40;100924.72;4979723;28;20029;-75
2022/08/23 11:00:57;;;;;;;27.55;2.90;;;;;;;30.87;33.26;100928.34;4978631;28;20030;-76
2022/08/23 11:04:00;;;;;;;14.88;1.90;;;;;;;30.31;33.14;100928.72;4977429;28;20162;-76
2022/08/23 11:06:41;;;;;;;68.85;7.20;;;;;;;30.09;33.93;100928.50;4946691;28;20157;-83
2022/08/23 11:09:08;;;;;;;184.77;20.83;;;;;;;30.43;33.51;100938.44;4977245;28;20560;-75
2022/08/23 11:11:47;;;;;;;0.85;0.50;;;;;;;30.54;32.94;100933.31;4976043;28;20150;-76
2022/08/23 11:14:35;;;;;;;2.17;0.60;;;;;;;30.38;32.62;100932.13;4978446;28;20396;-79
2022/08/23 11:17:06;;;;;;;50.05;7.95;;;;;;;30.76;32.74;100931.50;4977107;28;20125;-76
2022/08/23 11:19:52;;;;;;;9.68;1.42;;;;;;;31.01;32.46;100922.25;4977513;28;20034;-82
2022/08/23 11:22:30;;;;;;;119.50;13.82;;;;;;;31.17;32.20;100927.03;4976489;28;20026;-85
2022/08/23 11:25:00;;;;;;;0.88;0.63;;;;;;;31.19;32.21;100928.13;4977285;28;20116;-76
2022/08/23 11:27:41;;;;;;;1.00;0.60;;;;;;;30.87;31.22;100919.88;4979632;28;20038;-82
2022/08/23 11:30:31;;;;;;;404.83;52.58;;;;;;;30.80;31.65;100923.69;4976282;28;20190;-75
2022/08/23 11:33:23;;;;;;;60.92;7.50;;;;;;;30.92;32.17;100925.75;4977673;28;20109;-75
2022/08/23 11:36:15;;;;;;;0.98;0.73;;;;;;;30.97;32.46;100921.56;4957963;28;20416;-76
2022/08/23 11:38:46;;;;;;;19.83;2.13;;;;;;;30.96;31.93;100930.50;4976859;28;20431;-76
2022/08/23 11:41:18;;;;;;;10.70;1.55;;;;;;;30.96;32.13;100927.66;4976487;28;20105;-82
2022/08/23 11:44:09;;;;;;;1.15;0.50;;;;;;;30.96;31.09;100924.84;4976261;28;20615;-76
2022/08/23 11:46:54;;;;;;;16.42;1.98;;;;;;;31.05;30.83;100922.13;4975547;28;20129;-76